Time;durP1;ratioP1;P1;durP2;ratioP2;P2;SDS_P1;SDS_P2;PMS_P1;PMS_P2;Temp;Humidity;BMP_temperature;BMP_pressure;BME280_temperature;BME280_humidity;BME280_pressure;Samples;Min_cycle;Max_cycle;Signal;HPM_P1;HPM_P2
2023/03/12 00:01:32;;;;;;;7.00;4.30;;;2.50;99.90;;;;;;4984578;28;20682;-69
2023/03/12 00:04:01;;;;;;;4.20;3.80;;;2.50;99.90;;;;;;4984576;28;20336;-69
2023/03/12 00:06:26;;;;;;;5.10;3.60;;;2.50;99.90;;;;;;4984687;28;20422;-69
2023/03/12 00:08:52;;;;;;;4.73;4.10;;;2.50;99.90;;;;;;4984778;28;20492;-70
2023/03/12 00:11:19;;;;;;;5.73;3.90;;;2.40;99.90;;;;;;4984217;28;20263;-75
2023/03/12 00:13:49;;;;;;;4.50;4.00;;;2.40;99.90;;;;;;4984357;28;20672;-69
2023/03/12 00:16:15;;;;;;;5.33;2.50;;;2.40;99.90;;;;;;4984533;28;20421;-69
2023/03/12 00:18:41;;;;;;;4.03;3.73;;;2.40;99.90;;;;;;4983093;28;20542;-70
2023/03/12 00:21:08;;;;;;;6.53;3.40;;;2.40;99.90;;;;;;4984749;28;20222;-72
2023/03/12 00:23:34;;;;;;;8.33;4.33;;;2.40;99.90;;;;;;4983200;28;20538;-68
2023/03/12 00:26:12;;;;;;;4.27;3.10;;;2.40;99.90;;;;;;4984043;28;20421;-71
2023/03/12 00:28:38;;;;;;;3.90;3.27;;;2.40;99.90;;;;;;4982479;28;20490;-69
2023/03/12 00:31:15;;;;;;;5.03;3.50;;;2.40;99.90;;;;;;4983000;28;20461;-68
2023/03/12 00:33:40;;;;;;;6.40;4.17;;;2.50;99.90;;;;;;4984238;28;20579;-71
2023/03/12 00:36:06;;;;;;;6.30;3.80;;;2.40;99.90;;;;;;4984093;28;20876;-72
2023/03/12 00:38:32;;;;;;;6.57;3.20;;;2.40;99.90;;;;;;4984106;28;20622;-70
2023/03/12 00:40:58;;;;;;;7.50;4.37;;;2.40;99.90;;;;;;4984015;28;20478;-75
2023/03/12 00:43:23;;;;;;;10.23;4.00;;;2.40;99.90;;;;;;4983617;28;20203;-68
2023/03/12 00:45:49;;;;;;;5.80;3.60;;;2.30;99.90;;;;;;4984022;28;20223;-70
2023/03/12 00:48:14;;;;;;;5.53;3.37;;;2.20;99.90;;;;;;4984087;28;20625;-70
2023/03/12 00:50:40;;;;;;;7.60;3.57;;;2.10;99.90;;;;;;4983775;28;20216;-69
2023/03/12 00:53:05;;;;;;;6.67;4.47;;;2.20;99.90;;;;;;4983982;28;20657;-69
2023/03/12 00:55:31;;;;;;;10.70;4.23;;;2.20;99.90;;;;;;4983326;28;20176;-71
2023/03/12 00:57:57;;;;;;;4.10;3.80;;;2.30;99.90;;;;;;4983590;28;20210;-70
2023/03/12 01:00:22;;;;;;;4.97;3.73;;;2.20;99.90;;;;;;4982254;28;20227;-69
2023/03/12 01:02:48;;;;;;;6.90;3.53;;;2.30;99.90;;;;;;4983753;28;20607;-69
2023/03/12 01:05:13;;;;;;;6.07;4.00;;;2.30;99.90;;;;;;4983788;28;20178;-69
2023/03/12 01:07:39;;;;;;;6.90;3.50;;;2.30;99.90;;;;;;4983735;28;20246;-69
2023/03/12 01:10:06;;;;;;;6.83;3.90;;;2.30;99.90;;;;;;4983254;28;20234;-72
2023/03/12 01:12:31;;;;;;;5.30;3.40;;;2.40;99.90;;;;;;4983563;28;20555;-69
2023/03/12 01:14:57;;;;;;;5.93;3.70;;;2.40;99.90;;;;;;4983227;28;20419;-70
2023/03/12 01:17:22;;;;;;;5.20;3.70;;;2.50;99.90;;;;;;4983462;28;20203;-72
2023/03/12 01:19:48;;;;;;;6.00;4.10;;;2.60;99.90;;;;;;4983357;28;20601;-71
2023/03/12 01:22:13;;;;;;;4.30;3.30;;;2.60;99.90;;;;;;4983073;28;20220;-69
2023/03/12 01:24:39;;;;;;;4.27;3.50;;;2.80;99.90;;;;;;4983761;28;20176;-69
2023/03/12 01:27:05;;;;;;;7.70;4.40;;;2.90;99.90;;;;;;4983139;28;20219;-74
2023/03/12 01:29:30;;;;;;;4.33;3.77;;;2.90;99.90;;;;;;4983324;28;20181;-69
2023/03/12 01:31:56;;;;;;;5.60;4.10;;;2.90;99.90;;;;;;4983311;28;20200;-71
2023/03/12 01:34:21;;;;;;;5.07;3.30;;;2.90;99.90;;;;;;4983740;28;20192;-70
2023/03/12 01:36:47;;;;;;;6.23;4.03;;;2.80;99.90;;;;;;5016686;22;20237;-69
2023/03/12 01:39:13;;;;;;;4.47;3.30;;;2.70;99.90;;;;;;5008684;28;20692;-73
2023/03/12 01:41:40;;;;;;;6.60;4.00;;;2.80;99.90;;;;;;5008621;28;20251;-72
2023/03/12 01:44:06;;;;;;;5.53;3.47;;;2.90;99.90;;;;;;5006707;28;20425;-71
2023/03/12 01:46:35;;;;;;;5.17;3.27;;;2.90;99.90;;;;;;5007880;28;20520;-70
2023/03/12 01:49:23;;;;;;;4.90;3.37;;;2.80;99.90;;;;;;5008258;28;20414;-71
2023/03/12 01:51:50;;;;;;;5.93;3.27;;;2.80;99.90;;;;;;5007759;28;20416;-70
2023/03/12 01:54:56;;;;;;;8.27;3.47;;;2.80;99.90;;;;;;5006287;28;20410;-69
2023/03/12 01:57:35;;;;;;;3.60;3.30;;;2.90;99.90;;;;;;4993598;28;20877;-71
2023/03/12 02:00:14;;;;;;;4.93;3.50;;;2.90;99.90;;;;;;5007646;28;20410;-71
2023/03/12 02:02:40;;;;;;;6.70;3.67;;;3.00;99.90;;;;;;5007565;28;20462;-72
2023/03/12 02:05:16;;;;;;;6.00;3.13;;;3.10;99.90;;;;;;5007938;28;20478;-71
2023/03/12 02:07:41;;;;;;;6.70;4.00;;;3.10;99.90;;;;;;5005994;28;20410;-71
2023/03/12 02:10:08;;;;;;;3.17;2.87;;;3.20;99.90;;;;;;5007411;28;20422;-70
2023/03/12 02:12:34;;;;;;;3.77;3.00;;;3.20;99.90;;;;;;5005696;28;20188;-68
2023/03/12 02:14:59;;;;;;;5.20;3.37;;;3.20;99.90;;;;;;5007051;28;20419;-69
2023/03/12 02:17:25;;;;;;;4.00;2.80;;;3.20;99.90;;;;;;5007137;28;20207;-69
2023/03/12 02:20:15;;;;;;;6.83;3.60;;;3.30;99.90;;;;;;5005881;28;20176;-72
2023/03/12 02:22:45;;;;;;;4.13;3.37;;;3.20;99.90;;;;;;5005882;28;20187;-72
2023/03/12 02:25:26;;;;;;;5.20;3.67;;;3.30;99.90;;;;;;5006882;28;20779;-70
2023/03/12 02:27:51;;;;;;;5.47;3.70;;;3.30;99.90;;;;;;5006823;28;20407;-69
2023/03/12 02:30:18;;;;;;;4.90;3.23;;;3.20;99.90;;;;;;5006960;28;20441;-72
2023/03/12 02:32:45;;;;;;;4.00;3.00;;;3.30;99.90;;;;;;5007147;28;20274;-70
2023/03/12 02:35:12;;;;;;;5.77;3.33;;;3.20;99.90;;;;;;5007028;28;20434;-71
2023/03/12 02:37:51;;;;;;;4.37;3.13;;;3.20;99.90;;;;;;5006902;28;20461;-71
2023/03/12 02:40:42;;;;;;;5.10;3.70;;;3.20;99.90;;;;;;5006737;28;20422;-71
2023/03/12 02:43:09;;;;;;;6.73;3.43;;;3.30;99.90;;;;;;5005284;28;20967;-71
2023/03/12 02:45:35;;;;;;;5.57;3.37;;;3.30;99.90;;;;;;5006711;28;20442;-70
2023/03/12 02:48:02;;;;;;;6.90;3.77;;;3.30;99.90;;;;;;5006513;28;20423;-69
2023/03/12 02:50:28;;;;;;;3.93;3.50;;;3.30;99.90;;;;;;5006801;28;20418;-71
2023/03/12 02:52:53;;;;;;;6.60;3.80;;;3.30;99.90;;;;;;5006430;28;20418;-70
2023/03/12 02:55:19;;;;;;;3.93;3.40;;;3.30;99.90;;;;;;5007002;28;20218;-72
2023/03/12 02:57:44;;;;;;;8.03;3.50;;;3.40;99.90;;;;;;5006570;28;20214;-70
2023/03/12 03:00:13;;;;;;;8.50;4.30;;;3.30;99.90;;;;;;5006474;28;20176;-71
2023/03/12 03:02:40;;;;;;;4.93;3.40;;;3.30;99.90;;;;;;5006532;28;20528;-71
2023/03/12 03:05:06;;;;;;;5.00;4.00;;;3.20;99.90;;;;;;5006323;28;20814;-71
2023/03/12 03:07:32;;;;;;;6.03;4.10;;;3.20;99.90;;;;;;5004967;28;20478;-72
2023/03/12 03:10:03;;;;;;;4.67;4.10;;;3.10;99.90;;;;;;5004980;28;20796;-71
2023/03/12 03:12:33;;;;;;;6.30;4.10;;;3.20;99.90;;;;;;5006421;28;20168;-71
2023/03/12 03:14:59;;;;;;;4.40;4.00;;;3.10;99.90;;;;;;5006026;28;20790;-71
2023/03/12 03:17:25;;;;;;;6.47;3.90;;;3.00;99.90;;;;;;5005857;28;20455;-69
2023/03/12 03:19:51;;;;;;;5.50;4.10;;;3.00;99.90;;;;;;5006297;28;20314;-71
2023/03/12 03:22:19;;;;;;;7.17;4.17;;;2.90;99.90;;;;;;5006346;28;20509;-73
2023/03/12 03:24:44;;;;;;;9.77;4.70;;;2.90;99.90;;;;;;5004777;28;20419;-69
2023/03/12 03:27:11;;;;;;;5.43;4.50;;;3.00;99.90;;;;;;5005716;28;20442;-71
2023/03/12 03:29:36;;;;;;;5.70;4.50;;;3.10;99.90;;;;;;5004503;28;20422;-70
2023/03/12 03:32:02;;;;;;;5.63;4.00;;;3.00;99.90;;;;;;5005952;28;20426;-71
2023/03/12 03:34:28;;;;;;;5.80;3.80;;;3.00;99.90;;;;;;5006494;28;20686;-70
2023/03/12 03:36:53;;;;;;;5.80;4.47;;;3.10;99.90;;;;;;5005673;28;21900;-71
2023/03/12 03:39:19;;;;;;;7.23;4.50;;;3.20;99.90;;;;;;5005696;28;20219;-72
2023/03/12 03:41:46;;;;;;;5.10;4.17;;;3.30;99.90;;;;;;5005876;28;20234;-72
2023/03/12 03:44:11;;;;;;;4.77;4.27;;;3.30;99.90;;;;;;5004372;28;20176;-71
2023/03/12 03:46:37;;;;;;;6.53;4.60;;;3.40;99.90;;;;;;5005715;28;20448;-70
2023/03/12 03:49:03;;;;;;;5.33;4.57;;;3.40;99.90;;;;;;5005730;28;20567;-71
2023/03/12 03:51:29;;;;;;;10.57;4.57;;;3.40;99.90;;;;;;5005220;28;20567;-69
2023/03/12 03:53:59;;;;;;;5.83;4.70;;;3.60;99.90;;;;;;5005636;28;20176;-73
2023/03/12 03:56:25;;;;;;;5.03;4.63;;;3.70;99.90;;;;;;5005482;28;20566;-71
2023/03/12 03:58:50;;;;;;;7.27;5.30;;;3.70;99.90;;;;;;5003196;28;20458;-70
2023/03/12 04:01:16;;;;;;;7.50;4.00;;;3.80;99.90;;;;;;5005707;28;20449;-72
2023/03/12 04:03:42;;;;;;;6.53;4.60;;;3.90;99.90;;;;;;5004383;28;20886;-73
2023/03/12 04:06:08;;;;;;;9.40;4.80;;;4.00;99.90;;;;;;5004104;28;20541;-71
2023/03/12 04:08:35;;;;;;;7.30;4.67;;;4.00;99.90;;;;;;5005169;28;20666;-71
2023/03/12 04:11:13;;;;;;;6.20;5.60;;;3.90;99.90;;;;;;5005109;28;20267;-70
2023/03/12 04:13:39;;;;;;;6.93;5.40;;;3.90;99.90;;;;;;5003295;28;20437;-69
2023/03/12 04:16:05;;;;;;;10.10;5.23;;;3.90;99.90;;;;;;5005072;28;20451;-70
2023/03/12 04:18:31;;;;;;;8.50;5.50;;;4.00;99.90;;;;;;5004756;28;20474;-70
2023/03/12 04:20:56;;;;;;;6.40;5.47;;;4.10;99.90;;;;;;5005023;28;20411;-70
2023/03/12 04:23:22;;;;;;;8.87;5.47;;;4.20;99.90;;;;;;5003445;28;20215;-70
2023/03/12 04:25:48;;;;;;;9.67;6.27;;;4.30;99.90;;;;;;5005356;28;20200;-70
2023/03/12 04:28:13;;;;;;;9.20;5.67;;;4.20;99.90;;;;;;5004489;28;20184;-71
2023/03/12 04:30:39;;;;;;;7.63;6.17;;;4.30;99.90;;;;;;5005036;28;20709;-70
2023/03/12 04:33:06;;;;;;;8.10;6.40;;;4.40;99.90;;;;;;5005185;28;20666;-71
2023/03/12 04:35:31;;;;;;;10.70;7.50;;;4.40;99.90;;;;;;5004883;28;20219;-70
2023/03/12 04:37:59;;;;;;;9.10;7.07;;;4.40;99.90;;;;;;5003627;28;20804;-68
2023/03/12 04:40:24;;;;;;;8.77;6.53;;;4.40;99.90;;;;;;5005126;28;20194;-73
2023/03/12 04:42:50;;;;;;;9.10;7.07;;;4.40;99.90;;;;;;5004815;28;20419;-72
2023/03/12 04:45:16;;;;;;;9.03;6.77;;;4.40;99.90;;;;;;5004166;28;20671;-71
2023/03/12 04:47:41;;;;;;;13.57;6.07;;;4.40;99.90;;;;;;5004789;28;20710;-71
2023/03/12 04:50:07;;;;;;;8.30;5.80;;;4.40;99.90;;;;;;5003807;28;20195;-73
2023/03/12 04:52:33;;;;;;;10.57;6.33;;;4.30;99.90;;;;;;5004249;28;20183;-70
2023/03/12 04:54:59;;;;;;;8.10;6.33;;;4.40;99.90;;;;;;5004735;28;20805;-71
2023/03/12 04:57:25;;;;;;;7.23;6.53;;;4.50;99.90;;;;;;5004239;28;20192;-72
2023/03/12 04:59:51;;;;;;;8.73;7.30;;;4.50;99.90;;;;;;5003083;28;20438;-70
2023/03/12 05:02:17;;;;;;;9.13;6.87;;;4.50;99.90;;;;;;5002857;28;20803;-70
2023/03/12 05:04:42;;;;;;;7.30;5.77;;;4.50;99.90;;;;;;5004386;28;20660;-71
2023/03/12 05:07:08;;;;;;;7.33;5.27;;;4.40;99.90;;;;;;5002707;28;20211;-70
2023/03/12 05:09:33;;;;;;;7.83;6.53;;;4.40;99.90;;;;;;5004192;28;20188;-72
2023/03/12 05:12:00;;;;;;;12.00;7.07;;;4.40;99.90;;;;;;5003253;28;20180;-70
2023/03/12 05:14:25;;;;;;;7.30;6.00;;;4.30;99.90;;;;;;5003917;28;20871;-73
2023/03/12 05:16:51;;;;;;;7.83;5.73;;;4.40;99.90;;;;;;5003761;28;20470;-69
2023/03/12 05:19:16;;;;;;;9.10;5.83;;;4.40;99.90;;;;;;5004037;28;20180;-69
2023/03/12 05:21:42;;;;;;;13.83;5.77;;;4.40;99.90;;;;;;5004659;28;20184;-71
2023/03/12 05:24:09;;;;;;;6.23;5.63;;;4.50;99.90;;;;;;5003865;28;20543;-70
2023/03/12 05:26:35;;;;;;;8.07;5.73;;;4.60;99.90;;;;;;5003839;28;20442;-71
2023/03/12 05:29:02;;;;;;;7.50;4.93;;;4.80;99.90;;;;;;5003377;28;20502;-70
2023/03/12 05:31:31;;;;;;;7.20;4.83;;;4.80;99.90;;;;;;5002689;28;20414;-71
2023/03/12 05:33:57;;;;;;;8.53;6.13;;;4.80;99.90;;;;;;5003843;28;20411;-70
2023/03/12 05:36:23;;;;;;;6.23;5.17;;;4.90;99.90;;;;;;5003302;28;20486;-68
2023/03/12 05:38:49;;;;;;;8.43;6.10;;;5.00;99.90;;;;;;5003639;28;20505;-70
2023/03/12 05:41:24;;;;;;;6.60;5.90;;;4.90;99.90;;;;;;5002365;28;20714;-68
2023/03/12 05:43:51;;;;;;;6.63;6.00;;;4.90;99.90;;;;;;5004087;28;20259;-69
2023/03/12 05:46:17;;;;;;;7.40;5.30;;;4.90;99.90;;;;;;5003438;28;20964;-69
2023/03/12 05:48:42;;;;;;;6.43;4.90;;;4.80;99.90;;;;;;5002287;28;20415;-69
2023/03/12 05:51:08;;;;;;;6.57;5.47;;;4.90;99.90;;;;;;5003618;28;20195;-69
2023/03/12 05:53:34;;;;;;;10.67;5.77;;;4.90;99.90;;;;;;5003880;28;20254;-70
2023/03/12 05:56:05;;;;;;;8.47;6.03;;;5.00;99.90;;;;;;5004046;28;20196;-70
2023/03/12 05:58:32;;;;;;;7.03;5.57;;;5.10;99.90;;;;;;5003191;28;21080;-69
2023/03/12 06:00:58;;;;;;;7.00;5.60;;;5.10;99.90;;;;;;5003346;28;20914;-69
2023/03/12 06:03:23;;;;;;;5.73;5.23;;;5.10;99.90;;;;;;5003332;28;20413;-68
2023/03/12 06:05:49;;;;;;;7.37;5.93;;;5.20;99.90;;;;;;5003408;28;20442;-71
2023/03/12 06:08:15;;;;;;;6.53;5.90;;;5.20;99.90;;;;;;5003477;28;20180;-72
2023/03/12 06:10:40;;;;;;;11.23;6.93;;;5.10;99.90;;;;;;5003949;28;20676;-72
2023/03/12 06:13:07;;;;;;;9.97;6.50;;;4.90;99.90;;;;;;5003561;28;20199;-71
2023/03/12 06:15:33;;;;;;;9.90;7.33;;;4.80;99.90;;;;;;5003368;28;20555;-70
2023/03/12 06:17:58;;;;;;;8.40;7.43;;;4.70;99.90;;;;;;5003820;28;20520;-70
2023/03/12 06:20:24;;;;;;;9.93;7.30;;;4.70;99.90;;;;;;5003648;28;20184;-70
2023/03/12 06:22:49;;;;;;;6.50;5.77;;;4.70;99.90;;;;;;5003845;28;20188;-71
2023/03/12 06:25:15;;;;;;;9.80;7.00;;;4.70;99.90;;;;;;5005586;28;20586;-68
2023/03/12 06:27:41;;;;;;;7.37;6.37;;;4.70;99.90;;;;;;5007021;28;20210;-71
2023/03/12 06:30:07;;;;;;;6.83;6.13;;;4.70;99.90;;;;;;5006754;28;20230;-70
2023/03/12 06:32:33;;;;;;;11.27;6.60;;;4.80;99.90;;;;;;5007182;28;20305;-71
2023/03/12 06:35:03;;;;;;;7.00;5.70;;;5.00;99.90;;;;;;5007077;28;20517;-71
2023/03/12 06:37:29;;;;;;;7.90;5.63;;;4.90;99.90;;;;;;5007084;28;20235;-70
2023/03/12 06:39:54;;;;;;;7.50;5.87;;;5.00;99.90;;;;;;5005486;28;20500;-71
2023/03/12 06:42:21;;;;;;;7.50;6.67;;;5.00;99.90;;;;;;5005526;28;21084;-71
2023/03/12 06:44:47;;;;;;;9.27;6.37;;;5.10;99.90;;;;;;5006092;28;20624;-69
2023/03/12 06:47:13;;;;;;;8.53;7.17;;;5.30;99.90;;;;;;5006781;28;20553;-72
2023/03/12 06:49:38;;;;;;;7.20;6.57;;;5.30;99.90;;;;;;5006574;28;20517;-70
2023/03/12 06:52:04;;;;;;;7.07;6.03;;;5.30;99.90;;;;;;5006831;28;20186;-71
2023/03/12 06:54:30;;;;;;;10.80;7.03;;;5.10;99.90;;;;;;5006620;28;20658;-70
2023/03/12 06:56:58;;;;;;;9.93;7.23;;;5.00;99.90;;;;;;5006188;28;20548;-70
2023/03/12 06:59:24;;;;;;;7.00;5.90;;;4.80;99.90;;;;;;5005411;28;20954;-71
2023/03/12 07:01:49;;;;;;;7.57;6.20;;;4.70;99.90;;;;;;5004774;28;20536;-69
2023/03/12 07:04:15;;;;;;;6.90;6.10;;;4.70;99.90;;;;;;5006664;28;20422;-71
2023/03/12 07:06:41;;;;;;;8.77;6.67;;;4.80;99.90;;;;;;5006375;28;20204;-70
2023/03/12 07:09:06;;;;;;;7.53;6.87;;;4.80;99.90;;;;;;5006590;28;20184;-72
2023/03/12 07:11:32;;;;;;;6.57;5.93;;;4.80;99.90;;;;;;5006246;28;20716;-71
2023/03/12 07:13:58;;;;;;;8.77;7.90;;;4.80;99.90;;;;;;5004473;28;20194;-72
2023/03/12 07:16:23;;;;;;;10.00;8.30;;;4.70;99.90;;;;;;5006291;28;20223;-72
2023/03/12 07:18:49;;;;;;;7.93;6.40;;;5.00;99.90;;;;;;5006425;28;20338;-71
2023/03/12 07:21:21;;;;;;;8.93;7.27;;;5.10;99.90;;;;;;5004375;28;20274;-70
2023/03/12 07:23:48;;;;;;;6.87;6.07;;;5.10;99.90;;;;;;5006464;28;20536;-69
2023/03/12 07:26:14;;;;;;;9.67;6.43;;;5.10;99.90;;;;;;5005828;28;20443;-70
2023/03/12 07:28:39;;;;;;;6.37;5.77;;;5.10;99.90;;;;;;5003649;28;20778;-71
2023/03/12 07:31:05;;;;;;;6.23;5.63;;;5.20;99.90;;;;;;5005998;28;20430;-70
2023/03/12 07:33:31;;;;;;;10.70;6.00;;;5.30;99.90;;;;;;5005652;28;20183;-71
2023/03/12 07:35:56;;;;;;;7.67;5.70;;;5.20;99.90;;;;;;5005576;28;20242;-71
2023/03/12 07:38:22;;;;;;;8.50;6.90;;;4.80;99.90;;;;;;5005525;28;20462;-72
2023/03/12 07:40:52;;;;;;;7.20;6.50;;;4.80;99.90;;;;;;5004597;28;20237;-71
2023/03/12 07:43:19;;;;;;;6.80;6.10;;;4.70;99.90;;;;;;5005692;28;20183;-71
2023/03/12 07:45:45;;;;;;;8.27;6.47;;;4.90;99.90;;;;;;5004052;28;20451;-68
2023/03/12 07:48:10;;;;;;;6.10;5.50;;;5.20;99.90;;;;;;5005693;28;20415;-71
2023/03/12 07:50:37;;;;;;;7.00;5.80;;;5.10;99.90;;;;;;5005820;28;20180;-71
2023/03/12 07:53:03;;;;;;;7.40;6.07;;;5.20;99.90;;;;;;5005571;28;20647;-70
2023/03/12 07:55:30;;;;;;;11.23;7.13;;;5.50;99.90;;;;;;5004249;28;20434;-69
2023/03/12 07:57:57;;;;;;;9.00;7.00;;;5.40;99.90;;;;;;5004950;28;21013;-71
2023/03/12 08:00:24;;;;;;;10.17;5.97;;;5.50;99.90;;;;;;5005295;28;20429;-72
2023/03/12 08:02:49;;;;;;;9.57;7.07;;;5.60;99.90;;;;;;5005302;28;20411;-72
2023/03/12 08:05:15;;;;;;;7.77;5.93;;;5.80;99.90;;;;;;5004878;28;20565;-71
2023/03/12 08:07:40;;;;;;;7.60;6.60;;;6.10;99.90;;;;;;5005355;28;20188;-71
2023/03/12 08:10:08;;;;;;;7.27;6.57;;;6.50;99.90;;;;;;5003692;28;20922;-69
2023/03/12 08:12:34;;;;;;;14.70;10.97;;;6.50;99.90;;;;;;5005110;28;20184;-71
2023/03/12 08:14:59;;;;;;;8.40;7.27;;;6.60;99.90;;;;;;5005335;28;20485;-72
2023/03/12 08:17:25;;;;;;;134.00;74.83;;;6.40;99.90;;;;;;5005278;28;20666;-72
2023/03/12 08:19:51;;;;;;;17.83;12.70;;;6.50;99.90;;;;;;5005125;28;20326;-70
2023/03/12 08:22:16;;;;;;;33.80;27.73;;;6.40;99.90;;;;;;5003430;28;20184;-69
2023/03/12 08:24:42;;;;;;;8.03;7.17;;;6.50;99.90;;;;;;5005261;28;20692;-71
2023/03/12 08:27:08;;;;;;;9.73;6.37;;;6.50;99.90;;;;;;5004456;28;20619;-71
2023/03/12 08:29:34;;;;;;;10.23;8.83;;;6.20;99.90;;;;;;5004570;28;20422;-70
2023/03/12 08:32:00;;;;;;;8.50;7.47;;;6.10;99.90;;;;;;5004551;28;20929;-69
2023/03/12 08:34:25;;;;;;;19.37;17.73;;;6.00;99.90;;;;;;5004835;28;20180;-71
2023/03/12 08:36:51;;;;;;;12.17;7.20;;;6.10;99.90;;;;;;5002853;28;20211;-70
2023/03/12 08:39:16;;;;;;;10.80;9.70;;;5.90;99.90;;;;;;5004627;28;20207;-70
2023/03/12 08:41:42;;;;;;;7.80;6.97;;;5.80;99.90;;;;;;5004263;28;20180;-70
2023/03/12 08:44:07;;;;;;;8.90;7.00;;;5.60;99.90;;;;;;5004084;28;20276;-72
2023/03/12 08:46:33;;;;;;;9.17;7.90;;;5.90;99.90;;;;;;5002675;28;20847;-70
2023/03/12 08:48:59;;;;;;;9.10;7.90;;;6.30;99.90;;;;;;5004047;28;20933;-72
2023/03/12 08:51:24;;;;;;;8.37;7.03;;;6.50;99.90;;;;;;5004408;28;20413;-71
2023/03/12 08:53:50;;;;;;;7.80;6.47;;;6.70;99.90;;;;;;5004328;28;20192;-69
2023/03/12 08:56:16;;;;;;;9.57;7.77;;;7.00;99.90;;;;;;5004540;28;20542;-71
2023/03/12 08:58:42;;;;;;;8.50;7.47;;;6.80;99.90;;;;;;5003638;28;20211;-72
2023/03/12 09:01:10;;;;;;;9.87;8.93;;;7.00;99.90;;;;;;5002943;28;20673;-71
2023/03/12 09:03:35;;;;;;;12.03;10.93;;;6.60;99.90;;;;;;5004352;28;20775;-71
2023/03/12 09:06:08;;;;;;;9.67;7.70;;;7.00;99.90;;;;;;5004337;28;20516;-72
2023/03/12 09:08:34;;;;;;;8.53;7.60;;;7.10;99.90;;;;;;5002617;28;20190;-69
2023/03/12 09:11:00;;;;;;;9.00;8.10;;;7.50;99.90;;;;;;5004143;28;20415;-71
2023/03/12 09:13:26;;;;;;;8.00;7.00;;;7.70;99.90;;;;;;5002370;28;20331;-71
2023/03/12 09:15:56;;;;;;;10.30;8.70;;;8.00;99.90;;;;;;5003907;28;21064;-71
2023/03/12 09:18:22;;;;;;;11.67;9.30;;;8.00;99.90;;;;;;5004147;28;20232;-69
2023/03/12 09:20:48;;;;;;;10.43;7.07;;;8.00;99.90;;;;;;5004091;28;20423;-70
2023/03/12 09:23:13;;;;;;;8.60;7.50;;;8.10;99.90;;;;;;5003846;28;20671;-71
2023/03/12 09:25:39;;;;;;;9.83;6.50;;;7.90;99.90;;;;;;5003888;28;20207;-69
2023/03/12 09:28:04;;;;;;;7.73;7.00;;;7.90;99.90;;;;;;5003437;28;20187;-71
2023/03/12 09:30:30;;;;;;;7.97;6.80;;;8.00;99.90;;;;;;5002261;28;20198;-71
2023/03/12 09:32:56;;;;;;;8.63;7.23;;;8.30;99.90;;;;;;5003653;28;20451;-70
2023/03/12 09:35:22;;;;;;;7.40;6.70;;;8.60;99.90;;;;;;5003416;28;20461;-71
2023/03/12 09:37:50;;;;;;;9.00;8.10;;;8.90;99.90;;;;;;5003531;28;20194;-70
2023/03/12 09:40:19;;;;;;;8.60;7.77;;;8.40;99.90;;;;;;5003395;28;20174;-70
2023/03/12 09:43:04;;;;;;;9.53;6.70;;;8.60;99.90;;;;;;5001941;28;20452;-73
2023/03/12 09:45:40;;;;;;;7.50;6.60;;;8.80;99.90;;;;;;5003144;28;20445;-71
2023/03/12 09:48:26;;;;;;;6.93;6.23;;;9.10;99.90;;;;;;5003266;28;20421;-70
2023/03/12 09:50:52;;;;;;;7.10;5.30;;;9.40;99.90;;;;;;5003514;28;20539;-71
2023/03/12 09:53:24;;;;;;;8.60;5.70;;;9.60;99.90;;;;;;5003685;28;21122;-71
2023/03/12 09:55:52;;;;;;;6.83;5.67;;;9.60;99.90;;;;;;5003327;28;20442;-73
2023/03/12 09:58:31;;;;;;;5.50;5.00;;;9.80;99.90;;;;;;5005556;28;20455;-72
2023/03/12 10:01:26;;;;;;;5.67;5.17;;;10.10;99.90;;;;;;5007885;28;20406;-72
2023/03/12 10:04:10;;;;;;;5.30;4.70;;;10.70;99.90;;;;;;5007199;28;20403;-71
2023/03/12 10:06:47;;;;;;;9.03;8.33;;;10.90;99.90;;;;;;5006991;28;20432;-71
2023/03/12 10:10:10;;;;;;;9.27;7.40;;;10.60;99.90;;;;;;5007049;28;20780;-70
2023/03/12 10:12:49;;;;;;;8.77;7.93;;;10.30;99.90;;;;;;4965179;28;20432;-69
2023/03/12 10:15:35;;;;;;;6.90;6.20;;;10.40;99.90;;;;;;4970686;28;20978;-69
2023/03/12 10:18:19;;;;;;;8.17;6.30;;;10.60;99.90;;;;;;5000318;28;20467;-71
2023/03/12 10:21:10;;;;;;;6.50;5.90;;;10.80;99.90;;;;;;5006901;28;20413;-68
2023/03/12 10:23:53;;;;;;;4.27;3.70;;;11.00;99.90;;;;;;5006822;28;20407;-70
2023/03/12 10:26:27;;;;;;;4.30;3.70;;;11.20;99.90;;;;;;5005836;28;20964;-70
2023/03/12 10:29:19;;;;;;;4.50;2.93;;;11.30;99.90;;;;;;5006238;28;20509;-69
2023/03/12 10:31:56;;;;;;;2.83;2.60;;;11.50;99.90;;;;;;5006796;28;20415;-71
2023/03/12 10:34:47;;;;;;;3.07;2.30;;;11.20;99.90;;;;;;5006774;28;20468;-68
2023/03/12 10:37:30;;;;;;;2.30;2.00;;;11.30;99.90;;;;;;5005233;28;20486;-70
2023/03/12 10:39:56;;;;;;;2.40;1.57;;;11.10;99.90;;;;;;5007066;28;20486;-68
2023/03/12 10:42:26;;;;;;;2.70;2.07;;;11.00;99.90;;;;;;5004621;28;20529;-69
2023/03/12 10:45:15;;;;;;;2.60;2.20;;;11.10;99.90;;;;;;5005549;28;21010;-70
2023/03/12 10:47:42;;;;;;;2.87;2.17;;;11.20;99.90;;;;;;5005682;28;21057;-70
2023/03/12 10:50:17;;;;;;;2.17;1.97;;;11.20;99.90;;;;;;5006582;28;20910;-68
2023/03/12 10:52:44;;;;;;;5.10;2.70;;;11.30;99.90;;;;;;5006942;28;20467;-71
2023/03/12 10:55:31;;;;;;;3.03;2.20;;;11.20;99.90;;;;;;5006284;28;20415;-71
2023/03/12 10:57:57;;;;;;;3.00;2.13;;;11.00;99.90;;;;;;5005943;28;20745;-69
2023/03/12 11:00:26;;;;;;;3.47;2.83;;;10.90;99.90;;;;;;5004702;28;21265;-72
2023/03/12 11:03:04;;;;;;;4.17;2.93;;;11.00;99.90;;;;;;5006227;28;20407;-71
2023/03/12 11:05:35;;;;;;;4.30;2.20;;;10.80;99.90;;;;;;5006639;28;20953;-70
2023/03/12 11:08:03;;;;;;;3.10;2.80;;;10.90;99.90;;;;;;5005947;28;21289;-71
2023/03/12 11:10:31;;;;;;;2.47;2.20;;;10.80;99.90;;;;;;5005072;28;20477;-72
2023/03/12 11:13:00;;;;;;;2.93;2.57;;;11.00;99.90;;;;;;5006001;28;20583;-70
2023/03/12 11:15:37;;;;;;;2.27;2.07;;;11.40;99.90;;;;;;5004378;28;20725;-72
2023/03/12 11:18:24;;;;;;;2.30;2.10;;;11.90;99.90;;;;;;5020887;28;20454;-70
2023/03/12 11:20:52;;;;;;;2.40;2.00;;;11.90;99.90;;;;;;5004796;28;20423;-71
2023/03/12 11:23:38;;;;;;;2.73;2.53;;;11.60;99.90;;;;;;5006295;28;20402;-71
2023/03/12 11:26:28;;;;;;;2.97;2.10;;;11.60;99.90;;;;;;5005982;28;20431;-70
2023/03/12 11:29:29;;;;;;;1.90;1.70;;;12.00;99.90;;;;;;5005745;28;20708;-70
2023/03/12 11:32:16;;;;;;;3.37;2.50;;;12.20;99.90;;;;;;4993113;28;20827;-71
2023/03/12 11:34:46;;;;;;;4.10;2.47;;;12.60;99.90;;;;;;5005958;28;20414;-73
2023/03/12 11:37:33;;;;;;;1.80;1.50;;;12.70;99.90;;;;;;5005658;28;20831;-73
2023/03/12 11:40:08;;;;;;;4.23;2.07;;;12.90;99.90;;;;;;5005665;28;20519;-69
2023/03/12 11:42:34;;;;;;;4.07;1.60;;;12.90;99.90;;;;;;5005722;28;20404;-73
2023/03/12 11:45:13;;;;;;;1.80;1.50;;;12.80;99.90;;;;;;5004312;28;20435;-72
2023/03/12 11:48:08;;;;;;;1.90;1.37;;;13.00;99.90;;;;;;5005647;28;20188;-71
2023/03/12 11:50:52;;;;;;;1.37;1.10;;;13.10;99.90;;;;;;5005972;28;20418;-72
2023/03/12 11:53:35;;;;;;;2.73;1.40;;;13.00;99.90;;;;;;5005496;28;20501;-71
2023/03/12 11:56:12;;;;;;;1.20;1.00;;;13.00;99.90;;;;;;5005837;28;20434;-72
2023/03/12 11:58:58;;;;;;;4.47;1.63;;;13.00;99.90;;;;;;5005562;28;20515;-72
2023/03/12 12:01:55;;;;;;;2.07;1.00;;;12.90;99.90;;;;;;5005472;28;20400;-72
2023/03/12 12:04:47;;;;;;;1.53;1.20;;;12.80;99.90;;;;;;5005439;28;20411;-72
2023/03/12 12:07:41;;;;;;;4.37;2.33;;;12.60;99.90;;;;;;5006195;28;20428;-72
2023/03/12 12:10:45;;;;;;;2.40;1.10;;;13.00;99.90;;;;;;5003917;28;20441;-71
2023/03/12 12:13:35;;;;;;;3.37;1.57;;;13.60;99.90;;;;;;4998116;28;20787;-70
2023/03/12 12:16:20;;;;;;;1.67;1.50;;;13.70;99.90;;;;;;5004806;28;20440;-70
2023/03/12 12:19:04;;;;;;;2.77;1.60;;;13.30;99.90;;;;;;5004469;28;20651;-71
2023/03/12 12:22:05;;;;;;;1.77;1.20;;;13.40;99.90;;;;;;5004417;28;20935;-71
2023/03/12 12:24:39;;;;;;;2.20;1.80;;;13.90;99.90;;;;;;5004704;28;20917;-72
2023/03/12 12:27:20;;;;;;;2.87;1.73;;;13.60;99.90;;;;;;5003662;28;20483;-71
2023/03/12 12:30:07;;;;;;;3.80;1.40;;;13.60;99.90;;;;;;5004200;28;20393;-70
2023/03/12 12:32:38;;;;;;;3.20;1.13;;;13.60;99.90;;;;;;5004684;28;20417;-71
2023/03/12 12:35:26;;;;;;;5.93;2.83;;;13.30;99.90;;;;;;5004846;28;20414;-72
2023/03/12 12:37:58;;;;;;;2.53;1.50;;;13.30;99.90;;;;;;5004864;28;20544;-72
2023/03/12 12:40:51;;;;;;;4.67;1.67;;;13.30;99.90;;;;;;5004979;28;20413;-73
2023/03/12 12:43:26;;;;;;;3.47;1.23;;;13.70;99.90;;;;;;5004337;28;20417;-74
2023/03/12 12:45:56;;;;;;;4.37;1.43;;;14.00;99.90;;;;;;5004370;28;20442;-73
2023/03/12 12:48:23;;;;;;;2.00;1.20;;;14.00;99.90;;;;;;5004807;28;20413;-72
2023/03/12 12:50:50;;;;;;;2.10;1.30;;;13.70;99.90;;;;;;5005026;28;20461;-73
2023/03/12 12:53:29;;;;;;;3.50;1.63;;;13.50;99.90;;;;;;5004781;28;20471;-71
2023/03/12 12:56:00;;;;;;;6.20;2.20;;;13.50;99.90;;;;;;5004165;28;20434;-70
2023/03/12 12:58:48;;;;;;;4.33;1.90;;;13.40;99.90;;;;;;5004104;28;20482;-71
2023/03/12 13:01:16;;;;;;;2.57;1.30;;;13.40;99.90;;;;;;5003881;28;20533;-71
2023/03/12 13:03:44;;;;;;;4.50;1.87;;;13.50;99.90;;;;;;5004550;28;20420;-72
2023/03/12 13:06:10;;;;;;;4.00;1.80;;;13.20;99.90;;;;;;5004172;28;20443;-72
2023/03/12 13:08:38;;;;;;;3.73;1.73;;;12.90;99.90;;;;;;5004213;28;20449;-73